Time;durP1;ratioP1;P1;durP2;ratioP2;P2;SDS_P1;SDS_P2;PMS_P1;PMS_P2;Temp;Humidity;BMP_temperature;BMP_pressure;BME280_temperature;BME280_humidity;BME280_pressure;Samples;Min_cycle;Max_cycle;Signal;HPM_P1;HPM_P2
2023/01/07 00:01:20;;;;;;;8.25;4.47;;;;;;;5.76;100.00;100872.72;5074938;28;20024;-78
2023/01/07 00:03:48;;;;;;;10.63;4.82;;;;;;;5.68;100.00;100863.63;5056759;28;20033;-76
2023/01/07 00:06:14;;;;;;;9.15;5.68;;;;;;;5.65;100.00;100863.69;5056851;28;20032;-78
2023/01/07 00:08:42;;;;;;;9.13;5.35;;;;;;;5.58;100.00;100861.88;5075088;28;20036;-78
2023/01/07 00:11:11;;;;;;;10.90;5.30;;;;;;;5.56;100.00;100860.72;5057792;28;20029;-80
2023/01/07 00:13:37;;;;;;;11.10;5.93;;;;;;;5.58;100.00;100863.91;5039741;28;20103;-78
2023/01/07 00:16:05;;;;;;;8.65;5.97;;;;;;;5.56;100.00;100860.72;5040241;28;20165;-78
2023/01/07 00:18:31;;;;;;;10.70;6.47;;;;;;;5.57;100.00;100867.97;5074353;28;20354;-80
2023/01/07 00:20:58;;;;;;;12.50;6.38;;;;;;;5.56;100.00;100867.19;5056508;28;20065;-79
2023/01/07 00:23:25;;;;;;;10.50;5.93;;;;;;;5.46;100.00;100859.75;5073804;28;20110;-80
2023/01/07 00:26:05;;;;;;;8.60;5.68;;;;;;;5.48;100.00;100868.63;5074317;28;20032;-78
2023/01/07 00:28:35;;;;;;;9.27;6.03;;;;;;;5.43;100.00;100871.97;5057415;28;20389;-78
2023/01/07 00:31:05;;;;;;;9.20;5.73;;;;;;;5.38;100.00;100872.50;5040927;28;20044;-80
2023/01/07 00:33:34;;;;;;;8.48;5.53;;;;;;;5.36;100.00;100875.78;5024503;28;20036;-79
2023/01/07 00:36:02;;;;;;;10.00;5.75;;;;;;;5.34;100.00;100877.47;5058098;28;20029;-79
2023/01/07 00:38:29;;;;;;;12.63;6.30;;;;;;;5.32;100.00;100875.09;5075377;28;20020;-80
2023/01/07 00:40:55;;;;;;;10.27;5.85;;;;;;;5.30;100.00;100880.38;5057219;28;20036;-79
2023/01/07 00:43:22;;;;;;;12.30;5.88;;;;;;;5.22;100.00;100873.31;5075065;28;20021;-80
2023/01/07 00:45:57;;;;;;;13.65;6.10;;;;;;;5.21;100.00;100880.22;5074487;28;20115;-80
2023/01/07 00:48:22;;;;;;;12.35;6.15;;;;;;;5.23;100.00;100885.44;5073728;28;20024;-80
2023/01/07 00:50:49;;;;;;;10.35;5.78;;;;;;;5.22;100.00;100881.81;5074035;28;20104;-79
2023/01/07 00:53:14;;;;;;;11.18;5.90;;;;;;;5.10;100.00;100865.53;5055874;28;20016;-81
2023/01/07 00:55:40;;;;;;;8.23;5.97;;;;;;;5.19;100.00;100877.03;5073816;28;20074;-80
2023/01/07 00:58:07;;;;;;;10.50;5.82;;;;;;;5.21;100.00;100893.56;5055937;28;20060;-79
2023/01/07 01:00:33;;;;;;;9.02;5.40;;;;;;;5.20;100.00;100889.16;5056176;28;20036;-79
2023/01/07 01:02:58;;;;;;;8.85;5.47;;;;;;;5.23;100.00;100889.06;5055544;28;20016;-79
2023/01/07 01:05:25;;;;;;;11.05;5.55;;;;;;;5.16;100.00;100869.41;5073541;28;20406;-80
2023/01/07 01:07:56;;;;;;;9.00;5.57;;;;;;;5.36;100.00;100891.97;5072671;28;20145;-79
2023/01/07 01:10:26;;;;;;;9.55;5.60;;;;;;;5.44;100.00;100895.47;5073265;28;20025;-80
2023/01/07 01:12:52;;;;;;;8.15;4.95;;;;;;;5.51;100.00;100886.75;5073361;28;20020;-79
2023/01/07 01:15:26;;;;;;;7.22;5.13;;;;;;;5.58;100.00;100883.75;5055455;28;20039;-79
2023/01/07 01:17:52;;;;;;;10.25;5.25;;;;;;;5.69;100.00;100895.63;5073840;28;20100;-80
2023/01/07 01:20:18;;;;;;;11.00;5.13;;;;;;;5.78;100.00;100895.78;5056471;28;20158;-79
2023/01/07 01:22:45;;;;;;;7.80;5.03;;;;;;;5.87;100.00;100898.78;5039968;28;20047;-79
2023/01/07 01:25:11;;;;;;;7.63;5.22;;;;;;;5.92;100.00;100892.56;5053103;28;20052;-79
2023/01/07 01:27:37;;;;;;;8.95;5.18;;;;;;;5.97;100.00;100894.06;5036424;28;20036;-79
2023/01/07 01:30:06;;;;;;;5.97;4.07;;;;;;;5.98;100.00;100884.31;5053003;28;20032;-79
2023/01/07 01:32:32;;;;;;;6.05;4.03;;;;;;;6.05;100.00;100892.59;5035986;28;20135;-78
2023/01/07 01:35:00;;;;;;;6.60;4.28;;;;;;;6.11;100.00;100888.78;5052268;28;20033;-79
2023/01/07 01:37:26;;;;;;;7.82;5.00;;;;;;;6.15;100.00;100880.16;5054208;28;20543;-79
2023/01/07 01:39:51;;;;;;;5.75;4.40;;;;;;;6.13;100.00;100886.31;5054163;28;20145;-79
2023/01/07 01:42:22;;;;;;;6.13;4.75;;;;;;;6.11;100.00;100879.47;5054071;28;20529;-80
2023/01/07 01:44:49;;;;;;;10.30;4.30;;;;;;;6.05;100.00;100873.53;5052801;28;20120;-79
2023/01/07 01:47:38;;;;;;;7.47;4.43;;;;;;;6.02;100.00;100873.66;5053979;28;20346;-78
2023/01/07 01:50:18;;;;;;;7.88;4.55;;;;;;;5.96;100.00;100870.56;5052862;28;20078;-78
2023/01/07 01:52:50;;;;;;;6.80;4.68;;;;;;;5.94;100.00;100869.44;5052616;28;20091;-79
2023/01/07 01:55:21;;;;;;;9.48;4.85;;;;;;;5.97;100.00;100862.84;5052587;28;20488;-79
2023/01/07 01:57:59;;;;;;;7.63;4.38;;;;;;;6.03;100.00;100869.56;5052356;28;20443;-79
2023/01/07 02:00:26;;;;;;;8.02;5.28;;;;;;;6.06;100.00;100860.97;5054113;28;20082;-79
2023/01/07 02:03:01;;;;;;;5.47;4.38;;;;;;;6.09;100.00;100860.03;5052605;28;20422;-78
2023/01/07 02:05:32;;;;;;;6.07;4.32;;;;;;;6.00;100.00;100856.28;5052376;28;20032;-79
2023/01/07 02:07:58;;;;;;;7.03;4.93;;;;;;;5.87;100.00;100847.72;5052342;28;20033;-80
2023/01/07 02:10:27;;;;;;;7.03;4.47;;;;;;;5.84;100.00;100853.50;5052775;28;20039;-79
2023/01/07 02:13:30;;;;;;;6.43;4.57;;;;;;;5.76;100.00;100862.19;5052552;28;20044;-79
2023/01/07 02:16:21;;;;;;;14.38;4.65;;;;;;;5.70;100.00;100863.97;5052219;28;20119;-80
2023/01/07 02:19:09;;;;;;;6.97;4.72;;;;;;;5.70;100.00;100868.84;5053596;28;20197;-79
2023/01/07 02:22:06;;;;;;;9.40;5.47;;;;;;;5.68;100.00;100854.31;5053879;28;20119;-78
2023/01/07 02:25:02;;;;;;;12.68;5.93;;;;;;;5.63;100.00;100849.19;5066461;28;20085;-80
2023/01/07 02:28:02;;;;;;;10.73;5.28;;;;;;;5.55;100.00;100847.81;5055452;28;20086;-79
2023/01/07 02:30:40;;;;;;;10.43;6.13;;;;;;;5.41;100.00;100842.47;5073542;28;20100;-80
2023/01/07 02:33:25;;;;;;;9.75;6.05;;;;;;;5.30;100.00;100845.59;5073291;28;20029;-80
2023/01/07 02:36:15;;;;;;;11.07;7.03;;;;;;;5.16;100.00;100846.75;5038882;28;20531;-79
2023/01/07 02:38:55;;;;;;;10.80;5.95;;;;;;;5.06;100.00;100835.66;5073374;28;20036;-79
2023/01/07 02:41:21;;;;;;;8.02;5.82;;;;;;;5.03;100.00;100845.84;5073353;28;20037;-78
2023/01/07 02:44:23;;;;;;;11.20;6.30;;;;;;;5.04;100.00;100844.63;5073329;28;20476;-80
2023/01/07 02:46:57;;;;;;;9.45;6.10;;;;;;;5.15;100.00;100850.03;5072190;28;20036;-79
2023/01/07 02:49:23;;;;;;;7.70;5.00;;;;;;;5.23;100.00;100857.09;5054036;28;20037;-80
2023/01/07 02:51:55;;;;;;;7.53;4.80;;;;;;;5.29;100.00;100856.16;5072260;28;20039;-80
2023/01/07 02:54:23;;;;;;;9.43;5.90;;;;;;;5.31;100.00;100841.50;5055212;28;20031;-79
2023/01/07 02:57:45;;;;;;;8.52;6.32;;;;;;;5.51;100.00;100859.22;5071994;28;20032;-79
2023/01/07 03:00:17;;;;;;;9.32;6.85;;;;;;;5.57;100.00;100851.78;4990439;28;20034;-79
2023/01/07 03:03:03;;;;;;;10.48;8.30;;;;;;;5.63;100.00;100837.84;5070775;28;20444;-79
2023/01/07 03:05:40;;;;;;;14.20;8.48;;;;;;;5.81;100.00;100850.31;5072103;28;20036;-80
2023/01/07 03:08:25;;;;;;;18.30;10.75;;;;;;;5.87;100.00;100853.41;5053743;28;20040;-79
2023/01/07 03:10:59;;;;;;;18.35;11.13;;;;;;;5.87;100.00;100841.25;5072093;28;20029;-79
2023/01/07 03:13:48;;;;;;;14.35;9.60;;;;;;;5.92;100.00;100854.88;5021138;28;20028;-80
2023/01/07 03:16:22;;;;;;;28.35;14.48;;;;;;;5.91;100.00;100850.44;5072664;28;20078;-80
2023/01/07 03:18:59;;;;;;;16.27;11.05;;;;;;;5.90;100.00;100857.38;5055179;28;20029;-80
2023/01/07 03:21:34;;;;;;;16.40;10.77;;;;;;;5.84;100.00;100850.66;5055143;28;20357;-79
2023/01/07 03:24:01;;;;;;;12.35;8.02;;;;;;;5.75;100.00;100848.44;5038065;28;20497;-79
2023/01/07 03:26:31;;;;;;;14.05;7.60;;;;;;;5.67;100.00;100852.72;5055052;28;20474;-80
2023/01/07 03:28:59;;;;;;;11.15;6.35;;;;;;;5.60;100.00;100855.75;5022182;28;20058;-80
2023/01/07 03:31:25;;;;;;;9.60;6.82;;;;;;;5.55;100.00;100851.41;5039793;28;20037;-80
2023/01/07 03:34:04;;;;;;;8.32;6.05;;;;;;;5.52;100.00;100852.31;5076351;28;20451;-80
2023/01/07 03:36:39;;;;;;;8.27;5.93;;;;;;;5.46;100.00;100859.75;5076908;28;20032;-79
2023/01/07 03:39:06;;;;;;;12.13;5.70;;;;;;;5.46;100.00;100848.41;5042878;28;20374;-80
2023/01/07 03:44:18;;;;;;;10.73;5.93;;;;;;;5.49;100.00;100853.22;5076806;28;20039;-80
2023/01/07 03:46:44;;;;;;;11.85;6.68;;;;;;;5.54;100.00;100847.00;5077041;28;20097;-81
2023/01/07 03:49:10;;;;;;;10.70;6.80;;;;;;;5.59;100.00;100845.66;5085584;28;20073;-79
2023/01/07 03:51:37;;;;;;;9.65;6.68;;;;;;;5.67;100.00;100850.69;5090426;28;20024;-80
2023/01/07 03:54:04;;;;;;;9.63;6.20;;;;;;;5.68;100.00;100831.66;5088552;28;20366;-80
2023/01/07 03:56:29;;;;;;;11.18;6.00;;;;;;;5.70;100.00;100826.31;5062610;28;20067;-78
2023/01/07 03:58:55;;;;;;;9.27;5.75;;;;;;;5.86;100.00;100839.66;5061078;28;20549;-79
2023/01/07 04:01:22;;;;;;;9.93;6.13;;;;;;;5.90;100.00;100843.97;5076357;28;20040;-79
2023/01/07 04:03:47;;;;;;;9.73;5.10;;;;;;;5.80;100.00;100817.50;5058230;28;20035;-79
2023/01/07 04:06:14;;;;;;;8.70;5.32;;;;;;;5.89;100.00;100839.56;5075960;28;20028;-78
2023/01/07 04:08:39;;;;;;;7.38;5.15;;;;;;;5.85;100.00;100838.84;5058207;28;20036;-78
2023/01/07 04:11:07;;;;;;;7.70;5.40;;;;;;;5.80;100.00;100836.56;5058127;28;20028;-79
2023/01/07 04:13:33;;;;;;;8.35;5.32;;;;;;;5.66;100.00;100836.97;5076170;28;20035;-78
2023/01/07 04:16:00;;;;;;;10.77;5.78;;;;;;;5.55;100.00;100839.31;5075883;28;20024;-79
2023/01/07 04:18:26;;;;;;;7.70;5.25;;;;;;;5.43;100.00;100837.19;5075901;28;20020;-79
2023/01/07 04:20:53;;;;;;;8.32;5.82;;;;;;;5.30;100.00;100837.13;5057650;28;20044;-78
2023/01/07 04:23:18;;;;;;;10.05;5.72;;;;;;;5.21;100.00;100834.09;5075180;28;20131;-79
2023/01/07 04:25:48;;;;;;;11.10;5.97;;;;;;;5.10;100.00;100825.88;5057583;28;20119;-80
2023/01/07 04:28:15;;;;;;;12.85;6.78;;;;;;;4.98;100.00;100820.09;5057473;28;20358;-78
2023/01/07 04:30:42;;;;;;;12.55;6.97;;;;;;;4.88;100.00;100824.78;5075650;28;20035;-79
2023/01/07 04:33:07;;;;;;;13.35;7.28;;;;;;;4.82;100.00;100830.19;5075678;28;20027;-77
2023/01/07 04:35:33;;;;;;;11.00;7.00;;;;;;;4.77;100.00;100832.72;5075124;28;20032;-78
2023/01/07 04:37:59;;;;;;;11.68;6.25;;;;;;;4.58;100.00;100814.56;5074152;28;20024;-78
2023/01/07 04:40:25;;;;;;;15.90;7.28;;;;;;;4.61;100.00;100830.66;5057646;28;20027;-80
2023/01/07 04:42:50;;;;;;;11.70;6.72;;;;;;;4.57;100.00;100829.16;5039661;28;20020;-79
2023/01/07 04:45:17;;;;;;;11.85;7.50;;;;;;;4.50;100.00;100830.94;5056718;28;20370;-79
2023/01/07 04:47:42;;;;;;;11.52;7.38;;;;;;;4.45;100.00;100828.63;5074829;28;20473;-80
2023/01/07 04:50:08;;;;;;;12.10;6.47;;;;;;;4.42;100.00;100831.50;5057248;28;20050;-79
2023/01/07 04:52:33;;;;;;;11.73;7.13;;;;;;;4.28;100.00;100817.66;5074798;28;20020;-79
2023/01/07 04:54:59;;;;;;;11.15;6.90;;;;;;;4.32;100.00;100826.88;5057248;28;20032;-79
2023/01/07 04:57:25;;;;;;;14.32;7.68;;;;;;;4.29;100.00;100839.88;5039123;28;20119;-80
2023/01/07 04:59:50;;;;;;;13.80;7.00;;;;;;;4.27;100.00;100850.81;5072576;28;20098;-80
2023/01/07 05:02:16;;;;;;;13.57;7.68;;;;;;;4.25;100.00;100850.47;5073923;28;20040;-79
2023/01/07 05:04:43;;;;;;;14.82;7.68;;;;;;;4.33;100.00;100854.72;5040049;28;20481;-79
2023/01/07 05:07:08;;;;;;;15.07;8.40;;;;;;;4.43;100.00;100855.72;5074445;28;20035;-79
2023/01/07 05:09:36;;;;;;;14.00;8.00;;;;;;;4.49;100.00;100851.97;5072336;28;20111;-80
2023/01/07 05:12:16;;;;;;;13.20;7.95;;;;;;;4.57;100.00;100846.13;5056593;28;20020;-79
2023/01/07 05:14:43;;;;;;;12.35;7.88;;;;;;;4.69;100.00;100837.78;5074374;28;20024;-79
2023/01/07 05:17:09;;;;;;;12.63;8.48;;;;;;;4.84;100.00;100841.88;5056516;28;20111;-79
2023/01/07 05:19:35;;;;;;;12.55;7.60;;;;;;;4.93;100.00;100835.59;5074307;28;20473;-79
2023/01/07 05:22:03;;;;;;;16.67;9.07;;;;;;;4.98;100.00;100834.25;5056546;28;20062;-79
2023/01/07 05:24:29;;;;;;;14.32;7.72;;;;;;;5.06;100.00;100836.47;5053085;28;20045;-79
2023/01/07 05:26:56;;;;;;;15.07;8.32;;;;;;;5.10;100.00;100842.06;5054629;28;20032;-79
2023/01/07 05:29:24;;;;;;;14.07;8.68;;;;;;;5.14;100.00;100825.78;5054158;28;20020;-80
2023/01/07 05:31:50;;;;;;;16.08;9.18;;;;;;;5.19;100.00;100828.88;5052855;28;20032;-79
2023/01/07 05:34:22;;;;;;;14.82;9.65;;;;;;;5.23;100.00;100828.78;5054050;28;20017;-79
2023/01/07 05:36:50;;;;;;;13.90;8.55;;;;;;;5.14;100.00;100822.94;5054543;28;20471;-79
2023/01/07 05:39:15;;;;;;;13.38;7.75;;;;;;;5.03;100.00;100828.06;5052890;28;20025;-79
2023/01/07 05:41:41;;;;;;;13.20;8.18;;;;;;;4.90;100.00;100828.78;5036079;28;20032;-79
2023/01/07 05:44:08;;;;;;;11.45;7.72;;;;;;;4.81;100.00;100833.44;5053871;28;20155;-79
2023/01/07 05:46:36;;;;;;;12.80;8.88;;;;;;;4.69;100.00;100831.31;5054004;28;20474;-80
2023/01/07 05:49:02;;;;;;;15.05;8.48;;;;;;;4.59;100.00;100835.19;5052576;28;20024;-79
2023/01/07 05:51:28;;;;;;;16.05;8.35;;;;;;;4.49;100.00;100834.19;5053976;28;20029;-79
2023/01/07 05:53:54;;;;;;;13.93;8.77;;;;;;;4.42;100.00;100837.97;5035633;28;20371;-78
2023/01/07 05:56:22;;;;;;;14.50;8.68;;;;;;;4.40;100.00;100831.97;5052530;28;20130;-79
2023/01/07 05:58:48;;;;;;;13.23;8.68;;;;;;;4.48;100.00;100838.25;5052627;28;20028;-78
2023/01/07 06:01:13;;;;;;;17.73;8.57;;;;;;;4.55;100.00;100840.94;5035733;28;20121;-78
2023/01/07 06:03:41;;;;;;;14.85;8.75;;;;;;;4.60;100.00;100846.06;5053473;28;20033;-80
2023/01/07 06:06:09;;;;;;;12.73;8.65;;;;;;;4.66;100.00;100846.34;5053902;28;20024;-79
2023/01/07 06:08:36;;;;;;;13.45;9.05;;;;;;;4.68;100.00;100844.66;5053495;28;20021;-79
2023/01/07 06:11:04;;;;;;;13.77;8.55;;;;;;;4.71;100.00;100845.84;5035952;28;20501;-79
2023/01/07 06:13:30;;;;;;;14.98;10.05;;;;;;;4.76;100.00;100840.41;5052287;28;20033;-78
2023/01/07 06:16:04;;;;;;;14.82;8.88;;;;;;;4.84;100.00;100847.53;5052301;28;20091;-79
2023/01/07 06:18:38;;;;;;;13.80;8.85;;;;;;;4.93;100.00;100846.91;5052733;28;20385;-78
2023/01/07 06:21:04;;;;;;;15.05;9.27;;;;;;;4.93;100.00;100842.06;5052644;28;20099;-89
2023/01/07 06:23:30;;;;;;;14.35;9.63;;;;;;;4.86;100.00;100827.25;5057553;28;20065;-90
2023/01/07 06:25:56;;;;;;;15.45;8.98;;;;;;;4.89;100.00;100834.88;5056072;28;20067;-90
2023/01/07 06:28:24;;;;;;;14.75;9.38;;;;;;;4.86;100.00;100847.06;5039489;28;20024;-75
2023/01/07 06:30:51;;;;;;;14.77;9.85;;;;;;;4.77;100.00;100842.03;5039134;28;20477;-77
2023/01/07 06:33:18;;;;;;;16.52;8.90;;;;;;;4.70;100.00;100845.03;5073635;28;20116;-77
2023/01/07 06:35:44;;;;;;;16.23;9.05;;;;;;;4.71;100.00;100852.25;5073633;28;20028;-77
2023/01/07 06:38:11;;;;;;;15.85;9.57;;;;;;;4.70;100.00;100842.19;5038956;28;20502;-80
2023/01/07 06:40:37;;;;;;;12.00;8.18;;;;;;;4.75;100.00;100846.53;5086548;28;20468;-75
2023/01/07 06:43:02;;;;;;;15.45;9.45;;;;;;;4.79;100.00;100850.09;5093373;28;20024;-76
2023/01/07 06:45:30;;;;;;;15.07;9.68;;;;;;;4.82;100.00;100849.19;5075256;28;20032;-75
2023/01/07 06:47:57;;;;;;;17.20;9.82;;;;;;;4.88;100.00;100850.25;5075378;28;20075;-75
2023/01/07 06:50:24;;;;;;;15.05;9.10;;;;;;;4.93;100.00;100852.56;5076045;28;20032;-76
2023/01/07 06:52:51;;;;;;;14.30;8.30;;;;;;;4.93;100.00;100853.38;5058796;28;20044;-73
2023/01/07 06:55:17;;;;;;;14.50;8.80;;;;;;;4.93;100.00;100853.38;5075276;28;20031;-74
2023/01/07 06:57:42;;;;;;;17.65;9.85;;;;;;;4.96;100.00;100851.69;5093457;28;20027;-76
2023/01/07 07:00:09;;;;;;;13.05;9.15;;;;;;;5.03;100.00;100850.72;5058447;28;20024;-74
2023/01/07 07:02:36;;;;;;;15.68;10.27;;;;;;;5.13;100.00;100856.13;5093148;28;20357;-76
2023/01/07 07:05:01;;;;;;;17.77;8.50;;;;;;;5.24;100.00;100861.53;5092460;28;20036;-75
2023/01/07 07:07:29;;;;;;;14.38;9.43;;;;;;;5.39;100.00;100854.28;5078455;28;20099;-76
2023/01/07 07:09:55;;;;;;;18.40;9.70;;;;;;;5.52;100.00;100857.19;5078597;28;20074;-74
2023/01/07 07:12:22;;;;;;;16.73;8.48;;;;;;;5.62;100.00;100850.44;5096175;28;20027;-76
2023/01/07 07:14:48;;;;;;;15.15;8.80;;;;;;;5.68;100.00;100846.63;5097305;28;20016;-76
2023/01/07 07:17:15;;;;;;;14.80;8.65;;;;;;;5.75;100.00;100848.44;5097127;28;20418;-74
2023/01/07 07:19:40;;;;;;;15.95;8.52;;;;;;;5.81;100.00;100844.63;5078994;28;20110;-75
2023/01/07 07:22:14;;;;;;;13.75;8.32;;;;;;;5.96;100.00;100852.75;5061685;28;20119;-74
2023/01/07 07:24:40;;;;;;;16.23;10.00;;;;;;;6.03;100.00;100855.38;5096823;28;20040;-74
2023/01/07 07:27:08;;;;;;;16.27;8.52;;;;;;;6.07;100.00;100851.22;5096756;28;20500;-75
2023/01/07 07:29:33;;;;;;;16.30;10.02;;;;;;;6.15;100.00;100841.25;5078309;28;20127;-73
2023/01/07 07:32:01;;;;;;;11.68;7.95;;;;;;;6.25;100.00;100850.69;5096507;28;20020;-72
2023/01/07 07:34:27;;;;;;;14.00;9.10;;;;;;;6.35;100.00;100843.94;5096726;28;20012;-73
2023/01/07 07:36:52;;;;;;;19.90;10.48;;;;;;;6.44;100.00;100840.41;5078471;28;20489;-74
2023/01/07 07:39:20;;;;;;;18.17;9.32;;;;;;;6.53;100.00;100846.25;5095645;28;20067;-73
2023/01/07 07:41:47;;;;;;;17.52;9.82;;;;;;;6.61;100.00;100839.91;5078904;28;20059;-71
2023/01/07 07:44:14;;;;;;;14.82;9.30;;;;;;;6.64;100.00;100830.47;5096614;28;20020;-72
2023/01/07 07:46:41;;;;;;;13.07;8.07;;;;;;;6.61;100.00;100834.22;5096636;28;20121;-71
2023/01/07 07:49:07;;;;;;;14.00;8.50;;;;;;;6.59;100.00;100822.50;5096043;28;20032;-71
2023/01/07 07:51:34;;;;;;;15.55;9.43;;;;;;;6.64;100.00;100824.78;5061322;28;20036;-72
2023/01/07 07:54:00;;;;;;;14.80;8.13;;;;;;;6.61;100.00;100825.69;5095333;28;20028;-72
2023/01/07 07:56:28;;;;;;;12.68;8.35;;;;;;;6.61;100.00;100827.75;5084227;28;20062;-74
2023/01/07 07:58:53;;;;;;;11.70;7.90;;;;;;;6.55;100.00;100821.81;5084079;28;20148;-71
2023/01/07 08:01:18;;;;;;;12.40;8.05;;;;;;;6.60;100.00;100829.78;5081665;28;20038;-73
2023/01/07 08:03:45;;;;;;;12.00;7.55;;;;;;;6.65;100.00;100826.38;5085378;28;20044;-72
2023/01/07 08:06:13;;;;;;;10.85;7.70;;;;;;;6.67;100.00;100820.25;5077803;28;20028;-71
2023/01/07 08:08:47;;;;;;;11.32;8.23;;;;;;;6.65;100.00;100817.06;5077806;28;20486;-71
2023/01/07 08:11:15;;;;;;;10.82;8.20;;;;;;;6.63;100.00;100820.34;5096105;28;20020;-72
2023/01/07 08:13:40;;;;;;;13.57;8.43;;;;;;;6.64;100.00;100819.09;5095999;28;20103;-70
2023/01/07 08:16:06;;;;;;;11.95;7.88;;;;;;;6.74;100.00;100813.53;5086660;28;20107;-72
2023/01/07 08:18:32;;;;;;;12.13;8.70;;;;;;;6.87;100.00;100818.00;5095442;28;20022;-76
2023/01/07 08:20:58;;;;;;;14.63;9.70;;;;;;;7.09;100.00;100824.56;5095695;28;20023;-75
2023/01/07 08:23:26;;;;;;;12.80;7.93;;;;;;;7.33;100.00;100829.84;5075034;28;20064;-75
2023/01/07 08:25:52;;;;;;;12.20;8.52;;;;;;;7.46;100.00;100820.06;5065191;28;20032;-74
2023/01/07 08:28:18;;;;;;;14.82;8.40;;;;;;;7.66;100.00;100822.63;5093111;28;20135;-77
2023/01/07 08:30:43;;;;;;;15.80;8.68;;;;;;;7.82;100.00;100813.09;5084728;28;20016;-77
2023/01/07 08:33:09;;;;;;;16.42;9.60;;;;;;;7.92;100.00;100814.75;5085100;28;20037;-75
2023/01/07 08:35:35;;;;;;;14.07;9.68;;;;;;;7.97;100.00;100814.16;5065835;28;20012;-74
2023/01/07 08:38:05;;;;;;;14.73;9.00;;;;;;;7.97;100.00;100814.97;5079916;28;20061;-74
2023/01/07 08:40:31;;;;;;;13.97;8.33;;;;;;;7.98;100.00;100816.56;5092709;28;21677;-75
2023/01/07 08:43:00;;;;;;;10.93;7.97;;;;;;;8.00;100.00;100818.16;5074175;28;20036;-74
2023/01/07 08:45:27;;;;;;;12.23;7.72;;;;;;;7.88;100.00;100808.41;5094760;28;20013;-75
2023/01/07 08:47:52;;;;;;;15.30;7.95;;;;;;;7.81;100.00;100808.69;5076579;28;20485;-74
2023/01/07 08:50:19;;;;;;;10.55;7.68;;;;;;;7.74;100.00;100818.25;5076741;28;20043;-73
2023/01/07 08:52:46;;;;;;;12.38;8.13;;;;;;;7.67;100.00;100809.19;5095189;28;20032;-73
2023/01/07 08:55:11;;;;;;;13.45;9.00;;;;;;;7.70;100.00;100828.97;5094584;28;20020;-75
2023/01/07 08:57:37;;;;;;;13.18;8.88;;;;;;;7.67;100.00;100832.72;5059001;28;20057;-75
2023/01/07 09:00:02;;;;;;;17.58;10.18;;;;;;;7.68;100.00;100834.31;5094752;28;20027;-72
2023/01/07 09:02:28;;;;;;;19.40;11.02;;;;;;;7.73;100.00;100835.78;5093809;28;20036;-76
2023/01/07 09:04:53;;;;;;;13.75;10.13;;;;;;;7.79;100.00;100833.94;5092576;28;20415;-76
2023/01/07 09:07:18;;;;;;;17.95;10.85;;;;;;;7.84;100.00;100834.16;5094093;28;20055;-73
2023/01/07 09:09:46;;;;;;;12.77;9.27;;;;;;;7.95;100.00;100845.16;5093523;28;20028;-73
2023/01/07 09:12:11;;;;;;;16.05;9.95;;;;;;;8.07;100.00;100834.94;5087164;28;20035;-74
2023/01/07 09:14:38;;;;;;;14.73;10.13;;;;;;;8.26;100.00;100851.72;5067629;28;20024;-74
2023/01/07 09:17:03;;;;;;;18.33;10.98;;;;;;;8.47;100.00;100844.44;5057188;28;20039;-74
2023/01/07 09:19:30;;;;;;;15.48;9.55;;;;;;;8.61;100.00;100852.44;5083291;28;20028;-73
2023/01/07 09:21:56;;;;;;;15.88;10.68;;;;;;;8.76;100.00;100846.97;5076560;28;20031;-74
2023/01/07 09:24:24;;;;;;;13.95;9.57;;;;;;;8.87;100.00;100841.66;5044645;28;20517;-75
2023/01/07 09:26:52;;;;;;;15.30;9.82;;;;;;;8.87;100.00;100838.00;5074057;28;20024;-75
2023/01/07 09:29:19;;;;;;;13.38;8.73;;;;;;;8.87;100.00;100835.97;5055485;28;20120;-73
2023/01/07 09:31:48;;;;;;;13.80;9.02;;;;;;;8.88;100.00;100837.53;5073949;28;20028;-73
2023/01/07 09:34:16;;;;;;;12.52;8.63;;;;;;;9.03;100.00;100835.72;5073491;28;20040;-75
2023/01/07 09:36:42;;;;;;;15.85;8.77;;;;;;;9.25;100.00;100835.59;5072895;28;20060;-74
2023/01/07 09:39:27;;;;;;;12.57;9.23;;;;;;;9.35;100.00;100840.06;5081964;28;20104;-75
2023/01/07 09:42:35;;;;;;;13.60;8.80;;;;;;;9.48;100.00;100837.13;5073817;28;20032;-75
2023/01/07 09:45:15;;;;;;;14.07;8.93;;;;;;;9.58;100.00;100836.66;5029669;28;20040;-75
2023/01/07 09:47:44;;;;;;;10.55;7.63;;;;;;;9.60;100.00;100827.59;5056484;28;20032;-74
2023/01/07 09:50:38;;;;;;;14.00;8.20;;;;;;;9.57;100.00;100815.09;5051569;28;20436;-75
2023/01/07 09:53:14;;;;;;;10.27;7.40;;;;;;;9.57;100.00;100822.84;5094936;28;20020;-76
2023/01/07 09:55:42;;;;;;;10.15;7.68;;;;;;;9.57;100.00;100817.16;5077124;28;20024;-74
2023/01/07 09:58:17;;;;;;;9.93;7.10;;;;;;;9.56;100.00;100821.25;5076227;28;20032;-77
2023/01/07 10:01:38;;;;;;;13.48;6.93;;;;;;;9.58;100.00;100810.19;5076456;28;20059;-75
2023/01/07 10:04:23;;;;;;;9.00;6.85;;;;;;;9.58;100.00;100807.34;5023588;28;20061;-75
2023/01/07 10:06:59;;;;;;;10.23;6.30;;;;;;;9.60;100.00;100804.78;5015158;28;20026;-76
2023/01/07 10:09:58;;;;;;;12.02;8.63;;;;;;;9.74;100.00;100806.28;5031723;28;20498;-72
2023/01/07 10:12:30;;;;;;;9.80;7.70;;;;;;;9.81;100.00;100798.16;5031636;28;20067;-72
2023/01/07 10:15:07;;;;;;;11.05;7.78;;;;;;;9.78;100.00;100798.34;5015443;28;20132;-75
2023/01/07 10:18:13;;;;;;;10.63;6.88;;;;;;;9.73;100.00;100793.25;5041856;28;20044;-74
2023/01/07 10:20:46;;;;;;;12.38;8.60;;;;;;;9.78;100.00;100779.16;5093737;28;20078;-76
2023/01/07 10:23:15;;;;;;;13.40;7.82;;;;;;;9.77;100.00;100774.72;5093361;28;20032;-76
2023/01/07 10:25:47;;;;;;;9.05;6.75;;;;;;;9.74;100.00;100772.81;5093928;28;20024;-76
2023/01/07 10:28:24;;;;;;;10.15;7.10;;;;;;;9.95;100.00;100771.03;5075014;28;20446;-85
2023/01/07 10:30:58;;;;;;;10.15;6.97;;;;;;;10.21;100.00;100782.91;5091739;28;20024;-85
2023/01/07 10:33:32;;;;;;;10.77;7.90;;;;;;;10.43;100.00;100781.41;5075594;28;20024;-86
2023/01/07 10:36:45;;;;;;;10.15;7.50;;;;;;;10.54;100.00;100776.00;5073874;28;20058;-85
2023/01/07 10:39:51;;;;;;;11.63;6.95;;;;;;;10.55;100.00;100769.00;5091332;28;20036;-86
2023/01/07 10:42:34;;;;;;;13.30;7.65;;;;;;;10.58;100.00;100772.94;5077820;28;20469;-83
2023/01/07 10:45:19;;;;;;;12.20;8.55;;;;;;;10.63;100.00;100774.41;5096935;28;20028;-86
2023/01/07 10:48:03;;;;;;;11.48;7.85;;;;;;;10.66;100.00;100776.28;5096711;28;20020;-86
2023/01/07 10:50:57;;;;;;;14.63;8.80;;;;;;;10.62;100.00;100770.75;5097460;28;20028;-85
2023/01/07 10:53:52;;;;;;;15.05;9.10;;;;;;;10.67;100.00;100772.16;5097963;28;20024;-85
2023/01/07 10:56:46;;;;;;;14.95;9.02;;;;;;;10.71;100.00;100759.28;5097612;28;20028;-85
2023/01/07 10:59:27;;;;;;;13.13;8.55;;;;;;;10.87;100.00;100746.66;5062809;28;20020;-85
2023/01/07 11:01:57;;;;;;;15.65;9.35;;;;;;;11.00;100.00;100747.22;5097303;28;20457;-84
2023/01/07 11:04:43;;;;;;;12.90;7.60;;;;;;;11.15;100.00;100750.16;5079834;28;20088;-86
2023/01/07 11:07:49;;;;;;;11.50;7.95;;;;;;;11.21;100.00;100737.59;5078828;28;20431;-85
2023/01/07 11:10:19;;;;;;;12.02;6.78;;;;;;;11.25;100.00;100743.13;5078914;28;20047;-86
2023/01/07 11:13:32;;;;;;;10.55;7.60;;;;;;;11.15;100.00;100730.16;5097517;28;20536;-85
2023/01/07 11:16:14;;;;;;;11.43;7.97;;;;;;;11.18;100.00;100718.50;5054734;28;20485;-84
2023/01/07 11:18:54;;;;;;;10.25;7.13;;;;;;;11.23;100.00;100714.97;5062799;28;20085;-85
2023/01/07 11:21:44;;;;;;;10.18;7.43;;;;;;;11.27;100.00;100715.59;5097450;28;20097;-85
2023/01/07 11:24:36;;;;;;;11.40;7.57;;;;;;;11.26;100.00;100710.38;5096715;28;20044;-84
2023/01/07 11:27:23;;;;;;;10.43;6.82;;;;;;;11.26;100.00;100707.50;5097424;28;20106;-85
2023/01/07 11:30:00;;;;;;;10.32;6.68;;;;;;;11.16;100.00;100700.28;5078607;28;20114;-85
2023/01/07 11:32:29;;;;;;;8.75;6.80;;;;;;;11.04;100.00;100692.69;5097159;28;20028;-85
2023/01/07 11:34:59;;;;;;;10.05;6.85;;;;;;;10.94;100.00;100692.75;5078643;28;20469;-84
2023/01/07 11:37:37;;;;;;;9.98;6.22;;;;;;;10.82;100.00;100690.94;5078668;28;20028;-84
2023/01/07 11:40:16;;;;;;;9.63;6.53;;;;;;;10.76;100.00;100695.72;5097047;28;20020;-85